sensor_id;sensor_type;location;lat;lon;timestamp;P1;durP1;ratioP1;P2;durP2;ratioP2
75930;SDS011;64609;47.052;15.462;2024-01-11T00:01:25;77.50;;;39.00;;
75930;SDS011;64609;47.052;15.462;2024-01-11T00:03:50;73.47;;;35.70;;
75930;SDS011;64609;47.052;15.462;2024-01-11T00:06:16;71.55;;;35.97;;
75930;SDS011;64609;47.052;15.462;2024-01-11T00:08:43;68.55;;;36.83;;
75930;SDS011;64609;47.052;15.462;2024-01-11T00:11:08;66.03;;;35.20;;
75930;SDS011;64609;47.052;15.462;2024-01-11T00:13:34;73.57;;;36.70;;
75930;SDS011;64609;47.052;15.462;2024-01-11T00:15:59;63.10;;;33.33;;
75930;SDS011;64609;47.052;15.462;2024-01-11T00:18:25;64.82;;;34.70;;
75930;SDS011;64609;47.052;15.462;2024-01-11T00:20:51;65.70;;;33.97;;
75930;SDS011;64609;47.052;15.462;2024-01-11T00:23:17;66.57;;;33.83;;
75930;SDS011;64609;47.052;15.462;2024-01-11T00:25:42;66.13;;;34.15;;
75930;SDS011;64609;47.052;15.462;2024-01-11T00:28:08;60.45;;;32.65;;
75930;SDS011;64609;47.052;15.462;2024-01-11T00:30:33;62.75;;;32.33;;
75930;SDS011;64609;47.052;15.462;2024-01-11T00:32:59;57.97;;;31.02;;
75930;SDS011;64609;47.052;15.462;2024-01-11T00:35:24;60.78;;;31.20;;
75930;SDS011;64609;47.052;15.462;2024-01-11T00:37:50;59.90;;;30.98;;
75930;SDS011;64609;47.052;15.462;2024-01-11T00:40:16;58.63;;;29.80;;
75930;SDS011;64609;47.052;15.462;2024-01-11T00:42:41;62.05;;;31.17;;
75930;SDS011;64609;47.052;15.462;2024-01-11T00:45:07;57.95;;;30.33;;
75930;SDS011;64609;47.052;15.462;2024-01-11T00:47:33;55.03;;;28.73;;
75930;SDS011;64609;47.052;15.462;2024-01-11T00:49:58;53.92;;;29.95;;
75930;SDS011;64609;47.052;15.462;2024-01-11T00:52:24;57.38;;;29.60;;
75930;SDS011;64609;47.052;15.462;2024-01-11T00:54:49;53.40;;;29.52;;
75930;SDS011;64609;47.052;15.462;2024-01-11T00:57:15;53.97;;;28.80;;
75930;SDS011;64609;47.052;15.462;2024-01-11T00:59:41;52.47;;;28.45;;
75930;SDS011;64609;47.052;15.462;2024-01-11T01:02:06;52.55;;;28.10;;
75930;SDS011;64609;47.052;15.462;2024-01-11T01:04:32;49.55;;;28.38;;
75930;SDS011;64609;47.052;15.462;2024-01-11T01:06:57;54.47;;;27.88;;
75930;SDS011;64609;47.052;15.462;2024-01-11T01:09:23;47.28;;;27.23;;
75930;SDS011;64609;47.052;15.462;2024-01-11T01:11:49;50.63;;;27.65;;
75930;SDS011;64609;47.052;15.462;2024-01-11T01:14:14;47.40;;;25.92;;
75930;SDS011;64609;47.052;15.462;2024-01-11T01:16:40;48.53;;;27.20;;
75930;SDS011;64609;47.052;15.462;2024-01-11T01:19:06;47.92;;;27.00;;
75930;SDS011;64609;47.052;15.462;2024-01-11T01:21:32;50.50;;;27.05;;
75930;SDS011;64609;47.052;15.462;2024-01-11T01:23:57;55.33;;;28.88;;
75930;SDS011;64609;47.052;15.462;2024-01-11T01:26:23;54.08;;;29.60;;
75930;SDS011;64609;47.052;15.462;2024-01-11T01:28:48;51.78;;;27.63;;
75930;SDS011;64609;47.052;15.462;2024-01-11T01:31:14;54.58;;;29.75;;
75930;SDS011;64609;47.052;15.462;2024-01-11T01:33:40;51.30;;;27.60;;
75930;SDS011;64609;47.052;15.462;2024-01-11T01:36:08;52.83;;;27.10;;
75930;SDS011;64609;47.052;15.462;2024-01-11T01:38:35;52.45;;;28.30;;
75930;SDS011;64609;47.052;15.462;2024-01-11T01:41:00;51.20;;;28.55;;
75930;SDS011;64609;47.052;15.462;2024-01-11T01:43:26;55.65;;;28.20;;
75930;SDS011;64609;47.052;15.462;2024-01-11T01:45:51;53.67;;;27.05;;
75930;SDS011;64609;47.052;15.462;2024-01-11T01:48:18;66.50;;;31.40;;
75930;SDS011;64609;47.052;15.462;2024-01-11T01:50:44;54.42;;;28.42;;
75930;SDS011;64609;47.052;15.462;2024-01-11T01:53:15;56.42;;;30.38;;
75930;SDS011;64609;47.052;15.462;2024-01-11T01:55:48;55.67;;;28.45;;
75930;SDS011;64609;47.052;15.462;2024-01-11T01:58:16;53.47;;;26.90;;
75930;SDS011;64609;47.052;15.462;2024-01-11T02:00:44;54.97;;;30.25;;
75930;SDS011;64609;47.052;15.462;2024-01-11T02:03:10;51.05;;;28.38;;
75930;SDS011;64609;47.052;15.462;2024-01-11T02:05:37;53.53;;;29.17;;
75930;SDS011;64609;47.052;15.462;2024-01-11T02:08:03;56.38;;;29.10;;
75930;SDS011;64609;47.052;15.462;2024-01-11T02:10:34;51.67;;;28.65;;
75930;SDS011;64609;47.052;15.462;2024-01-11T02:13:04;52.65;;;28.80;;
75930;SDS011;64609;47.052;15.462;2024-01-11T02:15:30;52.17;;;29.17;;
75930;SDS011;64609;47.052;15.462;2024-01-11T02:17:55;49.47;;;28.40;;
75930;SDS011;64609;47.052;15.462;2024-01-11T02:20:21;52.90;;;27.70;;
75930;SDS011;64609;47.052;15.462;2024-01-11T02:22:47;51.67;;;28.33;;
75930;SDS011;64609;47.052;15.462;2024-01-11T02:25:18;53.40;;;28.00;;
75930;SDS011;64609;47.052;15.462;2024-01-11T02:27:50;47.03;;;26.48;;
75930;SDS011;64609;47.052;15.462;2024-01-11T02:30:16;51.22;;;27.25;;
75930;SDS011;64609;47.052;15.462;2024-01-11T02:32:45;49.63;;;28.35;;
75930;SDS011;64609;47.052;15.462;2024-01-11T02:35:13;50.65;;;26.92;;
75930;SDS011;64609;47.052;15.462;2024-01-11T02:37:43;48.47;;;25.25;;
75930;SDS011;64609;47.052;15.462;2024-01-11T02:40:10;49.40;;;26.17;;
75930;SDS011;64609;47.052;15.462;2024-01-11T02:42:37;47.88;;;27.35;;
75930;SDS011;64609;47.052;15.462;2024-01-11T02:45:03;47.50;;;27.17;;
75930;SDS011;64609;47.052;15.462;2024-01-11T02:47:28;51.13;;;27.23;;
75930;SDS011;64609;47.052;15.462;2024-01-11T02:49:54;44.30;;;27.00;;
75930;SDS011;64609;47.052;15.462;2024-01-11T02:52:20;49.28;;;26.20;;
75930;SDS011;64609;47.052;15.462;2024-01-11T02:54:45;46.58;;;26.65;;
75930;SDS011;64609;47.052;15.462;2024-01-11T02:57:11;47.30;;;25.00;;
75930;SDS011;64609;47.052;15.462;2024-01-11T02:59:37;49.25;;;25.77;;
75930;SDS011;64609;47.052;15.462;2024-01-11T03:02:02;45.20;;;24.25;;
75930;SDS011;64609;47.052;15.462;2024-01-11T03:04:29;48.28;;;25.88;;
75930;SDS011;64609;47.052;15.462;2024-01-11T03:06:54;51.10;;;27.23;;
75930;SDS011;64609;47.052;15.462;2024-01-11T03:09:20;47.17;;;23.98;;
75930;SDS011;64609;47.052;15.462;2024-01-11T03:11:46;41.53;;;24.55;;
75930;SDS011;64609;47.052;15.462;2024-01-11T03:14:12;42.22;;;25.10;;
75930;SDS011;64609;47.052;15.462;2024-01-11T03:16:37;40.55;;;22.55;;
75930;SDS011;64609;47.052;15.462;2024-01-11T03:19:04;37.42;;;22.25;;
75930;SDS011;64609;47.052;15.462;2024-01-11T03:21:30;46.60;;;22.10;;
75930;SDS011;64609;47.052;15.462;2024-01-11T03:23:56;47.88;;;25.52;;
75930;SDS011;64609;47.052;15.462;2024-01-11T03:26:22;55.00;;;27.80;;
75930;SDS011;64609;47.052;15.462;2024-01-11T03:28:47;48.90;;;26.92;;
75930;SDS011;64609;47.052;15.462;2024-01-11T03:31:13;50.53;;;28.38;;
75930;SDS011;64609;47.052;15.462;2024-01-11T03:33:39;45.60;;;25.23;;
75930;SDS011;64609;47.052;15.462;2024-01-11T03:36:08;45.80;;;25.88;;
75930;SDS011;64609;47.052;15.462;2024-01-11T03:38:37;41.95;;;24.08;;
75930;SDS011;64609;47.052;15.462;2024-01-11T03:41:09;41.63;;;23.85;;
75930;SDS011;64609;47.052;15.462;2024-01-11T03:43:35;42.30;;;23.80;;
75930;SDS011;64609;47.052;15.462;2024-01-11T03:46:01;37.03;;;22.17;;
75930;SDS011;64609;47.052;15.462;2024-01-11T03:48:28;41.65;;;23.55;;
75930;SDS011;64609;47.052;15.462;2024-01-11T03:50:53;38.85;;;23.25;;
75930;SDS011;64609;47.052;15.462;2024-01-11T03:53:19;42.60;;;23.42;;
75930;SDS011;64609;47.052;15.462;2024-01-11T03:55:45;38.50;;;22.63;;
75930;SDS011;64609;47.052;15.462;2024-01-11T03:58:10;41.42;;;22.13;;
75930;SDS011;64609;47.052;15.462;2024-01-11T04:00:36;42.05;;;22.48;;
75930;SDS011;64609;47.052;15.462;2024-01-11T04:03:02;38.03;;;23.40;;
75930;SDS011;64609;47.052;15.462;2024-01-11T04:05:28;44.22;;;25.30;;
75930;SDS011;64609;47.052;15.462;2024-01-11T04:07:53;41.50;;;23.02;;
75930;SDS011;64609;47.052;15.462;2024-01-11T04:10:19;49.10;;;25.75;;
75930;SDS011;64609;47.052;15.462;2024-01-11T04:12:44;46.50;;;24.73;;
75930;SDS011;64609;47.052;15.462;2024-01-11T04:15:13;48.05;;;25.17;;
75930;SDS011;64609;47.052;15.462;2024-01-11T04:17:39;48.17;;;24.60;;
75930;SDS011;64609;47.052;15.462;2024-01-11T04:20:06;42.17;;;23.48;;
75930;SDS011;64609;47.052;15.462;2024-01-11T04:22:33;42.25;;;24.13;;
75930;SDS011;64609;47.052;15.462;2024-01-11T04:24:59;44.40;;;24.58;;
75930;SDS011;64609;47.052;15.462;2024-01-11T04:27:25;44.83;;;23.83;;
75930;SDS011;64609;47.052;15.462;2024-01-11T04:29:51;43.80;;;23.67;;
75930;SDS011;64609;47.052;15.462;2024-01-11T04:32:16;43.03;;;23.88;;
75930;SDS011;64609;47.052;15.462;2024-01-11T04:34:42;39.53;;;23.02;;
75930;SDS011;64609;47.052;15.462;2024-01-11T04:37:08;41.75;;;23.15;;
75930;SDS011;64609;47.052;15.462;2024-01-11T04:39:33;37.22;;;22.77;;
75930;SDS011;64609;47.052;15.462;2024-01-11T04:41:59;44.20;;;22.67;;
75930;SDS011;64609;47.052;15.462;2024-01-11T04:44:25;42.58;;;23.17;;
75930;SDS011;64609;47.052;15.462;2024-01-11T04:46:51;42.00;;;23.80;;
75930;SDS011;64609;47.052;15.462;2024-01-11T04:49:17;40.10;;;22.45;;
75930;SDS011;64609;47.052;15.462;2024-01-11T04:51:42;40.25;;;22.45;;
75930;SDS011;64609;47.052;15.462;2024-01-11T04:54:08;39.03;;;22.13;;
75930;SDS011;64609;47.052;15.462;2024-01-11T04:56:34;41.85;;;22.88;;
75930;SDS011;64609;47.052;15.462;2024-01-11T04:58:59;38.08;;;22.27;;
75930;SDS011;64609;47.052;15.462;2024-01-11T05:01:25;38.00;;;22.00;;
75930;SDS011;64609;47.052;15.462;2024-01-11T05:03:50;41.17;;;22.88;;
75930;SDS011;64609;47.052;15.462;2024-01-11T05:06:16;38.17;;;21.52;;
75930;SDS011;64609;47.052;15.462;2024-01-11T05:08:46;42.03;;;21.95;;
75930;SDS011;64609;47.052;15.462;2024-01-11T05:11:16;36.35;;;20.55;;
75930;SDS011;64609;47.052;15.462;2024-01-11T05:13:46;36.67;;;20.88;;
75930;SDS011;64609;47.052;15.462;2024-01-11T05:16:22;35.80;;;20.48;;
75930;SDS011;64609;47.052;15.462;2024-01-11T05:18:52;34.92;;;19.95;;
75930;SDS011;64609;47.052;15.462;2024-01-11T05:21:22;38.35;;;20.88;;
75930;SDS011;64609;47.052;15.462;2024-01-11T05:23:49;36.47;;;20.98;;
75930;SDS011;64609;47.052;15.462;2024-01-11T05:26:16;36.83;;;22.17;;
75930;SDS011;64609;47.052;15.462;2024-01-11T05:28:42;37.60;;;20.15;;
75930;SDS011;64609;47.052;15.462;2024-01-11T05:31:11;36.97;;;22.10;;
75930;SDS011;64609;47.052;15.462;2024-01-11T05:33:38;38.58;;;20.98;;
75930;SDS011;64609;47.052;15.462;2024-01-11T05:36:04;36.72;;;20.83;;
75930;SDS011;64609;47.052;15.462;2024-01-11T05:38:31;35.53;;;20.27;;
75930;SDS011;64609;47.052;15.462;2024-01-11T05:40:56;34.53;;;21.00;;
75930;SDS011;64609;47.052;15.462;2024-01-11T05:43:22;37.97;;;20.42;;
75930;SDS011;64609;47.052;15.462;2024-01-11T05:45:48;34.47;;;19.80;;
75930;SDS011;64609;47.052;15.462;2024-01-11T05:48:15;33.78;;;19.35;;
75930;SDS011;64609;47.052;15.462;2024-01-11T05:50:41;35.00;;;19.07;;
75930;SDS011;64609;47.052;15.462;2024-01-11T05:53:07;36.53;;;18.83;;
75930;SDS011;64609;47.052;15.462;2024-01-11T05:55:33;32.63;;;19.95;;
75930;SDS011;64609;47.052;15.462;2024-01-11T05:57:59;36.17;;;19.25;;
75930;SDS011;64609;47.052;15.462;2024-01-11T06:00:25;36.00;;;19.90;;
75930;SDS011;64609;47.052;15.462;2024-01-11T06:02:50;35.05;;;19.27;;
75930;SDS011;64609;47.052;15.462;2024-01-11T06:05:16;38.53;;;19.48;;
75930;SDS011;64609;47.052;15.462;2024-01-11T06:07:42;34.75;;;20.80;;
75930;SDS011;64609;47.052;15.462;2024-01-11T06:10:07;39.38;;;20.70;;
75930;SDS011;64609;47.052;15.462;2024-01-11T06:12:34;38.55;;;21.00;;
75930;SDS011;64609;47.052;15.462;2024-01-11T06:15:00;34.25;;;20.33;;
75930;SDS011;64609;47.052;15.462;2024-01-11T06:17:26;38.10;;;21.50;;
75930;SDS011;64609;47.052;15.462;2024-01-11T06:19:51;37.38;;;20.73;;
75930;SDS011;64609;47.052;15.462;2024-01-11T06:22:17;39.80;;;20.55;;
75930;SDS011;64609;47.052;15.462;2024-01-11T06:24:43;39.45;;;20.58;;
75930;SDS011;64609;47.052;15.462;2024-01-11T06:27:09;38.92;;;20.95;;
75930;SDS011;64609;47.052;15.462;2024-01-11T06:29:34;37.67;;;20.45;;
75930;SDS011;64609;47.052;15.462;2024-01-11T06:32:00;39.05;;;21.35;;
75930;SDS011;64609;47.052;15.462;2024-01-11T06:34:26;35.45;;;20.75;;
75930;SDS011;64609;47.052;15.462;2024-01-11T06:36:53;34.25;;;20.33;;
75930;SDS011;64609;47.052;15.462;2024-01-11T06:39:20;39.00;;;21.63;;
75930;SDS011;64609;47.052;15.462;2024-01-11T06:41:45;36.92;;;20.35;;
75930;SDS011;64609;47.052;15.462;2024-01-11T06:44:11;36.17;;;21.30;;
75930;SDS011;64609;47.052;15.462;2024-01-11T06:46:37;36.90;;;21.20;;
75930;SDS011;64609;47.052;15.462;2024-01-11T06:49:06;35.95;;;20.77;;
75930;SDS011;64609;47.052;15.462;2024-01-11T06:51:32;37.55;;;21.55;;
75930;SDS011;64609;47.052;15.462;2024-01-11T06:53:58;39.10;;;21.40;;
75930;SDS011;64609;47.052;15.462;2024-01-11T06:56:25;35.90;;;22.10;;
75930;SDS011;64609;47.052;15.462;2024-01-11T06:58:50;40.20;;;21.77;;
75930;SDS011;64609;47.052;15.462;2024-01-11T07:01:16;46.85;;;22.10;;
75930;SDS011;64609;47.052;15.462;2024-01-11T07:03:42;34.67;;;21.15;;
75930;SDS011;64609;47.052;15.462;2024-01-11T07:06:08;39.30;;;21.13;;
75930;SDS011;64609;47.052;15.462;2024-01-11T07:08:34;38.53;;;23.58;;
75930;SDS011;64609;47.052;15.462;2024-01-11T07:11:03;34.90;;;22.27;;
75930;SDS011;64609;47.052;15.462;2024-01-11T07:13:29;38.60;;;21.17;;
75930;SDS011;64609;47.052;15.462;2024-01-11T07:15:56;40.47;;;21.70;;
75930;SDS011;64609;47.052;15.462;2024-01-11T07:18:22;40.50;;;22.38;;
75930;SDS011;64609;47.052;15.462;2024-01-11T07:20:49;43.25;;;22.40;;
75930;SDS011;64609;47.052;15.462;2024-01-11T07:23:15;39.70;;;22.80;;
75930;SDS011;64609;47.052;15.462;2024-01-11T07:25:41;48.40;;;23.77;;
75930;SDS011;64609;47.052;15.462;2024-01-11T07:28:07;45.22;;;24.50;;
75930;SDS011;64609;47.052;15.462;2024-01-11T07:30:32;52.30;;;27.15;;
75930;SDS011;64609;47.052;15.462;2024-01-11T07:32:58;43.65;;;25.70;;
75930;SDS011;64609;47.052;15.462;2024-01-11T07:35:24;48.65;;;26.13;;
75930;SDS011;64609;47.052;15.462;2024-01-11T07:37:50;47.63;;;24.00;;
75930;SDS011;64609;47.052;15.462;2024-01-11T07:40:16;47.17;;;25.90;;
75930;SDS011;64609;47.052;15.462;2024-01-11T07:42:42;43.20;;;24.58;;
75930;SDS011;64609;47.052;15.462;2024-01-11T07:45:08;53.13;;;27.98;;
75930;SDS011;64609;47.052;15.462;2024-01-11T07:47:37;47.65;;;26.50;;
75930;SDS011;64609;47.052;15.462;2024-01-11T07:50:07;52.60;;;31.10;;
75930;SDS011;64609;47.052;15.462;2024-01-11T07:55:01;47.40;;;26.10;;
75930;SDS011;64609;47.052;15.462;2024-01-11T07:57:32;51.47;;;28.17;;
75930;SDS011;64609;47.052;15.462;2024-01-11T07:59:59;51.15;;;29.70;;
75930;SDS011;64609;47.052;15.462;2024-01-11T08:02:25;53.47;;;30.63;;
75930;SDS011;64609;47.052;15.462;2024-01-11T08:04:50;43.90;;;26.85;;
75930;SDS011;64609;47.052;15.462;2024-01-11T08:07:16;50.20;;;29.88;;
75930;SDS011;64609;47.052;15.462;2024-01-11T08:09:42;48.45;;;29.77;;
75930;SDS011;64609;47.052;15.462;2024-01-11T08:12:10;49.42;;;31.42;;
75930;SDS011;64609;47.052;15.462;2024-01-11T08:14:36;41.85;;;30.02;;
75930;SDS011;64609;47.052;15.462;2024-01-11T08:17:02;49.17;;;30.00;;
75930;SDS011;64609;47.052;15.462;2024-01-11T08:19:29;43.38;;;30.02;;
75930;SDS011;64609;47.052;15.462;2024-01-11T08:21:55;41.83;;;29.27;;
75930;SDS011;64609;47.052;15.462;2024-01-11T08:24:21;46.92;;;29.10;;
75930;SDS011;64609;47.052;15.462;2024-01-11T08:26:47;40.40;;;27.30;;
75930;SDS011;64609;47.052;15.462;2024-01-11T08:29:13;41.55;;;27.90;;
75930;SDS011;64609;47.052;15.462;2024-01-11T08:31:39;40.33;;;26.65;;
75930;SDS011;64609;47.052;15.462;2024-01-11T08:34:05;35.55;;;25.60;;
75930;SDS011;64609;47.052;15.462;2024-01-11T08:36:31;38.97;;;26.23;;
75930;SDS011;64609;47.052;15.462;2024-01-11T08:38:59;38.67;;;27.23;;
75930;SDS011;64609;47.052;15.462;2024-01-11T08:41:27;35.75;;;26.13;;
75930;SDS011;64609;47.052;15.462;2024-01-11T08:43:53;44.72;;;26.40;;
75930;SDS011;64609;47.052;15.462;2024-01-11T08:46:25;38.13;;;25.08;;
75930;SDS011;64609;47.052;15.462;2024-01-11T08:48:51;36.90;;;25.85;;
75930;SDS011;64609;47.052;15.462;2024-01-11T08:51:18;37.25;;;26.10;;
75930;SDS011;64609;47.052;15.462;2024-01-11T08:53:43;35.50;;;26.45;;
75930;SDS011;64609;47.052;15.462;2024-01-11T08:56:09;35.80;;;26.42;;
75930;SDS011;64609;47.052;15.462;2024-01-11T08:58:35;41.88;;;25.63;;
75930;SDS011;64609;47.052;15.462;2024-01-11T09:01:01;38.33;;;25.30;;
75930;SDS011;64609;47.052;15.462;2024-01-11T09:03:27;35.25;;;26.08;;
75930;SDS011;64609;47.052;15.462;2024-01-11T09:05:53;38.38;;;25.55;;
75930;SDS011;64609;47.052;15.462;2024-01-11T09:08:22;38.33;;;25.90;;
75930;SDS011;64609;47.052;15.462;2024-01-11T09:10:48;33.75;;;23.67;;
75930;SDS011;64609;47.052;15.462;2024-01-11T09:13:14;34.63;;;23.90;;
75930;SDS011;64609;47.052;15.462;2024-01-11T09:15:43;35.33;;;24.33;;
75930;SDS011;64609;47.052;15.462;2024-01-11T09:18:08;34.55;;;23.30;;
75930;SDS011;64609;47.052;15.462;2024-01-11T09:20:34;37.50;;;24.35;;
75930;SDS011;64609;47.052;15.462;2024-01-11T09:23:00;39.25;;;23.60;;
75930;SDS011;64609;47.052;15.462;2024-01-11T09:25:28;39.15;;;23.65;;
75930;SDS011;64609;47.052;15.462;2024-01-11T09:27:55;37.95;;;22.67;;
75930;SDS011;64609;47.052;15.462;2024-01-11T09:30:21;37.70;;;22.20;;
75930;SDS011;64609;47.052;15.462;2024-01-11T09:32:46;41.22;;;22.40;;
75930;SDS011;64609;47.052;15.462;2024-01-11T09:35:12;34.53;;;23.15;;
75930;SDS011;64609;47.052;15.462;2024-01-11T09:37:38;32.53;;;22.58;;
75930;SDS011;64609;47.052;15.462;2024-01-11T09:40:04;35.13;;;22.52;;
75930;SDS011;64609;47.052;15.462;2024-01-11T09:42:35;37.88;;;22.30;;
75930;SDS011;64609;47.052;15.462;2024-01-11T09:45:09;35.80;;;22.17;;
75930;SDS011;64609;47.052;15.462;2024-01-11T09:47:37;30.85;;;21.15;;
75930;SDS011;64609;47.052;15.462;2024-01-11T09:50:04;31.02;;;20.23;;
75930;SDS011;64609;47.052;15.462;2024-01-11T09:52:31;30.95;;;20.33;;
75930;SDS011;64609;47.052;15.462;2024-01-11T09:55:00;31.95;;;20.75;;
75930;SDS011;64609;47.052;15.462;2024-01-11T09:57:29;32.50;;;20.37;;
75930;SDS011;64609;47.052;15.462;2024-01-11T09:59:57;27.67;;;19.27;;
75930;SDS011;64609;47.052;15.462;2024-01-11T10:02:23;32.45;;;19.92;;
75930;SDS011;64609;47.052;15.462;2024-01-11T10:04:52;26.37;;;19.20;;
75930;SDS011;64609;47.052;15.462;2024-01-11T10:07:21;32.67;;;19.45;;
75930;SDS011;64609;47.052;15.462;2024-01-11T10:09:48;29.63;;;19.42;;
75930;SDS011;64609;47.052;15.462;2024-01-11T10:12:14;33.03;;;18.25;;
75930;SDS011;64609;47.052;15.462;2024-01-11T10:14:40;26.95;;;17.67;;
75930;SDS011;64609;47.052;15.462;2024-01-11T10:17:06;26.88;;;19.08;;
75930;SDS011;64609;47.052;15.462;2024-01-11T10:19:32;32.28;;;18.23;;
75930;SDS011;64609;47.052;15.462;2024-01-11T10:21:58;29.50;;;18.90;;
75930;SDS011;64609;47.052;15.462;2024-01-11T10:24:24;26.48;;;18.73;;
75930;SDS011;64609;47.052;15.462;2024-01-11T10:26:56;34.00;;;19.27;;
75930;SDS011;64609;47.052;15.462;2024-01-11T10:29:27;31.63;;;20.08;;
75930;SDS011;64609;47.052;15.462;2024-01-11T10:31:55;34.00;;;20.77;;
75930;SDS011;64609;47.052;15.462;2024-01-11T10:34:22;34.08;;;22.23;;
75930;SDS011;64609;47.052;15.462;2024-01-11T10:36:48;30.67;;;22.27;;
75930;SDS011;64609;47.052;15.462;2024-01-11T10:39:14;36.22;;;21.98;;
75930;SDS011;64609;47.052;15.462;2024-01-11T10:41:43;36.60;;;21.65;;
75930;SDS011;64609;47.052;15.462;2024-01-11T10:44:20;34.72;;;20.38;;
75930;SDS011;64609;47.052;15.462;2024-01-11T10:49:14;32.50;;;21.77;;
75930;SDS011;64609;47.052;15.462;2024-01-11T10:51:44;29.40;;;21.65;;
75930;SDS011;64609;47.052;15.462;2024-01-11T10:54:18;35.83;;;21.95;;
75930;SDS011;64609;47.052;15.462;2024-01-11T10:56:45;33.88;;;22.08;;
75930;SDS011;64609;47.052;15.462;2024-01-11T10:59:12;31.48;;;20.38;;
75930;SDS011;64609;47.052;15.462;2024-01-11T11:01:39;32.67;;;20.20;;
75930;SDS011;64609;47.052;15.462;2024-01-11T11:04:04;31.17;;;20.90;;
75930;SDS011;64609;47.052;15.462;2024-01-11T11:06:33;31.65;;;21.63;;
75930;SDS011;64609;47.052;15.462;2024-01-11T11:09:01;31.73;;;20.75;;
75930;SDS011;64609;47.052;15.462;2024-01-11T11:11:30;25.58;;;19.48;;
75930;SDS011;64609;47.052;15.462;2024-01-11T11:13:57;29.77;;;19.33;;
75930;SDS011;64609;47.052;15.462;2024-01-11T11:16:25;28.30;;;19.87;;
75930;SDS011;64609;47.052;15.462;2024-01-11T11:18:54;30.75;;;19.35;;
75930;SDS011;64609;47.052;15.462;2024-01-11T11:21:20;28.10;;;17.70;;
75930;SDS011;64609;47.052;15.462;2024-01-11T11:23:46;27.02;;;17.48;;
75930;SDS011;64609;47.052;15.462;2024-01-11T11:26:14;27.73;;;17.20;;
75930;SDS011;64609;47.052;15.462;2024-01-11T11:28:41;31.60;;;18.80;;
75930;SDS011;64609;47.052;15.462;2024-01-11T11:31:07;28.25;;;18.63;;
75930;SDS011;64609;47.052;15.462;2024-01-11T11:33:32;28.65;;;18.27;;
75930;SDS011;64609;47.052;15.462;2024-01-11T11:35:59;24.58;;;17.33;;
75930;SDS011;64609;47.052;15.462;2024-01-11T11:38:28;23.92;;;17.00;;
75930;SDS011;64609;47.052;15.462;2024-01-11T11:40:56;24.70;;;17.05;;
75930;SDS011;64609;47.052;15.462;2024-01-11T11:43:23;23.77;;;16.55;;
75930;SDS011;64609;47.052;15.462;2024-01-11T11:45:50;21.45;;;16.40;;
75930;SDS011;64609;47.052;15.462;2024-01-11T11:51:10;26.55;;;17.10;;
75930;SDS011;64609;47.052;15.462;2024-01-11T11:53:39;23.10;;;16.17;;
75930;SDS011;64609;47.052;15.462;2024-01-11T11:56:06;24.20;;;15.77;;
75930;SDS011;64609;47.052;15.462;2024-01-11T11:58:34;23.48;;;17.27;;
75930;SDS011;64609;47.052;15.462;2024-01-11T12:01:00;25.38;;;16.13;;
75930;SDS011;64609;47.052;15.462;2024-01-11T12:03:30;22.00;;;16.00;;
75930;SDS011;64609;47.052;15.462;2024-01-11T12:05:58;27.40;;;16.58;;
75930;SDS011;64609;47.052;15.462;2024-01-11T12:08:25;24.02;;;16.52;;
75930;SDS011;64609;47.052;15.462;2024-01-11T12:10:52;23.70;;;15.85;;
75930;SDS011;64609;47.052;15.462;2024-01-11T12:13:18;24.20;;;15.18;;
75930;SDS011;64609;47.052;15.462;2024-01-11T12:15:45;22.85;;;14.93;;
75930;SDS011;64609;47.052;15.462;2024-01-11T12:18:11;24.88;;;16.27;;
75930;SDS011;64609;47.052;15.462;2024-01-11T12:20:36;21.02;;;15.05;;
75930;SDS011;64609;47.052;15.462;2024-01-11T12:23:02;25.58;;;16.10;;
75930;SDS011;64609;47.052;15.462;2024-01-11T12:25:28;24.08;;;15.10;;
75930;SDS011;64609;47.052;15.462;2024-01-11T12:27:57;23.15;;;14.95;;
75930;SDS011;64609;47.052;15.462;2024-01-11T12:30:26;28.13;;;15.93;;
75930;SDS011;64609;47.052;15.462;2024-01-11T12:32:53;22.85;;;15.88;;
75930;SDS011;64609;47.052;15.462;2024-01-11T12:35:20;22.77;;;14.80;;
75930;SDS011;64609;47.052;15.462;2024-01-11T12:37:52;23.20;;;15.13;;
75930;SDS011;64609;47.052;15.462;2024-01-11T12:40:24;20.48;;;15.15;;
75930;SDS011;64609;47.052;15.462;2024-01-11T12:42:52;29.02;;;15.57;;
75930;SDS011;64609;47.052;15.462;2024-01-11T12:45:19;24.15;;;16.08;;
75930;SDS011;64609;47.052;15.462;2024-01-11T12:47:45;26.92;;;15.95;;
75930;SDS011;64609;47.052;15.462;2024-01-11T12:50:13;28.70;;;15.95;;
75930;SDS011;64609;47.052;15.462;2024-01-11T12:52:39;21.95;;;16.10;;
75930;SDS011;64609;47.052;15.462;2024-01-11T12:55:07;32.38;;;15.50;;
75930;SDS011;64609;47.052;15.462;2024-01-11T12:57:34;24.08;;;15.52;;
75930;SDS011;64609;47.052;15.462;2024-01-11T13:02:55;32.13;;;16.30;;
75930;SDS011;64609;47.052;15.462;2024-01-11T13:05:20;30.67;;;16.20;;
75930;SDS011;64609;47.052;15.462;2024-01-11T13:07:46;26.55;;;15.35;;
75930;SDS011;64609;47.052;15.462;2024-01-11T13:10:12;28.65;;;16.20;;
75930;SDS011;64609;47.052;15.462;2024-01-11T13:12:39;29.67;;;16.98;;
75930;SDS011;64609;47.052;15.462;2024-01-11T13:15:05;28.98;;;16.35;;
75930;SDS011;64609;47.052;15.462;2024-01-11T13:17:31;28.60;;;15.75;;
75930;SDS011;64609;47.052;15.462;2024-01-11T13:19:57;23.08;;;16.08;;
75930;SDS011;64609;47.052;15.462;2024-01-11T13:22:24;21.92;;;15.30;;
75930;SDS011;64609;47.052;15.462;2024-01-11T13:24:50;25.35;;;15.52;;
75930;SDS011;64609;47.052;15.462;2024-01-11T13:27:15;22.67;;;14.93;;
75930;SDS011;64609;47.052;15.462;2024-01-11T13:29:41;23.30;;;14.32;;
75930;SDS011;64609;47.052;15.462;2024-01-11T13:32:07;24.58;;;15.30;;
75930;SDS011;64609;47.052;15.462;2024-01-11T13:34:32;29.20;;;16.25;;
75930;SDS011;64609;47.052;15.462;2024-01-11T13:36:58;24.60;;;15.07;;
75930;SDS011;64609;47.052;15.462;2024-01-11T13:39:24;25.67;;;15.38;;
75930;SDS011;64609;47.052;15.462;2024-01-11T13:41:50;27.27;;;14.60;;
75930;SDS011;64609;47.052;15.462;2024-01-11T13:44:16;21.65;;;14.93;;
75930;SDS011;64609;47.052;15.462;2024-01-11T13:46:41;24.08;;;14.93;;
75930;SDS011;64609;47.052;15.462;2024-01-11T13:49:08;23.75;;;15.82;;
75930;SDS011;64609;47.052;15.462;2024-01-11T13:51:34;28.00;;;15.40;;
75930;SDS011;64609;47.052;15.462;2024-01-11T13:54:00;22.55;;;15.25;;
75930;SDS011;64609;47.052;15.462;2024-01-11T13:56:26;20.05;;;14.02;;
75930;SDS011;64609;47.052;15.462;2024-01-11T13:58:52;24.02;;;15.77;;
75930;SDS011;64609;47.052;15.462;2024-01-11T14:01:18;24.73;;;14.93;;
75930;SDS011;64609;47.052;15.462;2024-01-11T14:03:43;22.25;;;14.85;;
75930;SDS011;64609;47.052;15.462;2024-01-11T14:06:09;23.88;;;14.65;;
75930;SDS011;64609;47.052;15.462;2024-01-11T14:08:35;21.55;;;14.93;;
75930;SDS011;64609;47.052;15.462;2024-01-11T14:11:00;25.88;;;14.90;;
75930;SDS011;64609;47.052;15.462;2024-01-11T14:13:26;21.83;;;14.63;;
75930;SDS011;64609;47.052;15.462;2024-01-11T14:15:51;25.05;;;15.88;;